地図

経路データ

SID SEASON NUMBER BASIN SUBBASIN NAME ISO_TIME NATURE LAT LON WMO_WIND WMO_PRES WMO_AGENCY TRACK_TYPE DIST2LAND LANDFALL IFLAG USA_AGENCY USA_ATCF_ID USA_LAT USA_LON USA_RECORD USA_STATUS USA_WIND USA_PRES USA_SSHS USA_R34_NE USA_R34_SE USA_R34_SW USA_R34_NW USA_R50_NE USA_R50_SE USA_R50_SW USA_R50_NW USA_R64_NE USA_R64_SE USA_R64_SW USA_R64_NW USA_POCI USA_ROCI USA_RMW USA_EYE TOKYO_LAT TOKYO_LON TOKYO_GRADE TOKYO_WIND TOKYO_PRES TOKYO_R50_DIR TOKYO_R50_LONG TOKYO_R50_SHORT TOKYO_R30_DIR TOKYO_R30_LONG TOKYO_R30_SHORT TOKYO_LAND CMA_LAT CMA_LON CMA_CAT CMA_WIND CMA_PRES HKO_LAT HKO_LON HKO_CAT HKO_WIND HKO_PRES NEWDELHI_LAT NEWDELHI_LON NEWDELHI_GRADE NEWDELHI_WIND NEWDELHI_PRES NEWDELHI_CI NEWDELHI_DP NEWDELHI_POCI REUNION_LAT REUNION_LON REUNION_TYPE REUNION_WIND REUNION_PRES REUNION_TNUM REUNION_CI REUNION_RMW REUNION_R34_NE REUNION_R34_SE REUNION_R34_SW REUNION_R34_NW REUNION_R50_NE REUNION_R50_SE REUNION_R50_SW REUNION_R50_NW REUNION_R64_NE REUNION_R64_SE REUNION_R64_SW REUNION_R64_NW BOM_LAT BOM_LON BOM_TYPE BOM_WIND BOM_PRES BOM_TNUM BOM_CI BOM_RMW BOM_R34_NE BOM_R34_SE BOM_R34_SW BOM_R34_NW BOM_R50_NE BOM_R50_SE BOM_R50_SW BOM_R50_NW BOM_R64_NE BOM_R64_SE BOM_R64_SW BOM_R64_NW BOM_ROCI BOM_POCI BOM_EYE BOM_POS_METHOD BOM_PRES_METHOD NADI_LAT NADI_LON NADI_CAT NADI_WIND NADI_PRES WELLINGTON_LAT WELLINGTON_LON WELLINGTON_WIND WELLINGTON_PRES DS824_LAT DS824_LON DS824_STAGE DS824_WIND DS824_PRES TD9636_LAT TD9636_LON TD9636_STAGE TD9636_WIND TD9636_PRES TD9635_LAT TD9635_LON TD9635_WIND TD9635_PRES TD9635_ROCI NEUMANN_LAT NEUMANN_LON NEUMANN_CLASS NEUMANN_WIND NEUMANN_PRES MLC_LAT MLC_LON MLC_CLASS MLC_WIND MLC_PRES USA_GUST BOM_GUST BOM_GUST_PER REUNION_GUST REUNION_GUST_PER USA_SEAHGT USA_SEARAD_NE USA_SEARAD_SE USA_SEARAD_SW USA_SEARAD_NW STORM_SPEED STORM_DIR
2022239N12324 2022 52 NA NA EARL 2022-08-27 00:00:00 NR 12.3000 -35.9000 PROVISIONAL 1756 1746 O_____________ nhc_working_bt AL062022 12.3000 -35.9000 DB 20 -3 1011 150 90 12 278
2022239N12324 2022 52 NA NA EARL 2022-08-27 03:00:00 NR 12.3777 -36.4876 PROVISIONAL 1752 1743 P_____________ AL062022 12.3777 -36.4876 DB 20 -3 1011 150 90 12 280
2022239N12324 2022 52 NA NA EARL 2022-08-27 06:00:00 NR 12.5000 -37.1000 PROVISIONAL 1751 1747 O_____________ nhc_working_bt AL062022 12.5000 -37.1000 DB 20 -3 1011 150 90 13 284
2022239N12324 2022 52 NA NA EARL 2022-08-27 09:00:00 NR 12.6924 -37.7499 PROVISIONAL 1763 1714 P_____________ AL062022 12.6924 -37.7499 DB 20 -3 1011 150 90 13 288
2022239N12324 2022 52 NA NA EARL 2022-08-27 12:00:00 NR 12.9000 -38.4000 PROVISIONAL 1714 1666 O_____________ nhc_working_bt AL062022 12.9000 -38.4000 DB 20 -3 1011 150 90 13 286
2022239N12324 2022 52 NA NA EARL 2022-08-27 15:00:00 NR 13.0423 -39.0078 PROVISIONAL 1666 1626 P_____________ AL062022 13.0423 -39.0078 DB 20 -3 1011 150 90 12 284
2022239N12324 2022 52 NA NA EARL 2022-08-27 18:00:00 NR 13.2000 -39.6000 PROVISIONAL 1626 1589 O_____________ nhc_working_bt AL062022 13.2000 -39.6000 DB 20 -3 1011 150 90 12 290
2022239N12324 2022 52 NA NA EARL 2022-08-27 21:00:00 NR 13.4572 -40.1849 PROVISIONAL 1596 1561 P_____________ AL062022 13.4572 -40.1849 DB 22 -3 1011 150 90 13 293
2022239N12324 2022 52 NA NA EARL 2022-08-28 00:00:00 NR 13.7000 -40.8000 PROVISIONAL 1561 1520 O_____________ nhc_working_bt AL062022 13.7000 -40.8000 DB 25 1009 -3 1011 150 90 13 287
2022239N12324 2022 52 NA NA EARL 2022-08-28 03:00:00 NR 13.8374 -41.4851 PROVISIONAL 1513 1467 P_____________ AL062022 13.8374 -41.4851 DB 25 1009 -3 1011 150 90 14 278
2022239N12324 2022 52 NA NA EARL 2022-08-28 06:00:00 NR 13.9000 -42.2000 PROVISIONAL 1467 1416 O_____________ nhc_working_bt AL062022 13.9000 -42.2000 DB 25 1009 -3 1011 150 90 14 273
2022239N12324 2022 52 NA NA EARL 2022-08-28 09:00:00 NR 13.9149 -42.9076 PROVISIONAL 1416 1367 P_____________ AL062022 13.9149 -42.9076 DB 27 1008 -3 1011 150 85 14 270
2022239N12324 2022 52 NA NA EARL 2022-08-28 12:00:00 NR 13.9000 -43.6000 PROVISIONAL 1367 1321 O_____________ nhc_working_bt AL062022 13.9000 -43.6000 DB 30 1008 -3 1011 150 80 14 269
2022239N12324 2022 52 NA NA EARL 2022-08-28 15:00:00 NR 13.8927 -44.3325 PROVISIONAL 1321 1284 P_____________ AL062022 13.8927 -44.3325 DB 30 1007 -3 1011 135 80 13 270
2022239N12324 2022 52 NA NA EARL 2022-08-28 18:00:00 NR 13.9000 -44.9000 PROVISIONAL 1284 1272 O_____________ nhc_working_bt AL062022 13.9000 -44.9000 DB 30 1007 -3 1011 120 80 7 272
2022239N12324 2022 52 NA NA EARL 2022-08-28 21:00:00 NR 13.9196 -45.0951 PROVISIONAL 1272 1272 P_____________ AL062022 13.9196 -45.0951 DB 30 1007 -3 1011 120 80 3 289
2022239N12324 2022 52 NA NA EARL 2022-08-29 00:00:00 NR 14.0000 -45.2000 PROVISIONAL 1276 1269 O_____________ nhc_working_bt AL062022 14.0000 -45.2000 DB 30 1007 -3 1012 120 80 5 304
2022239N12324 2022 52 NA NA EARL 2022-08-29 03:00:00 NR 14.1925 -45.5124 PROVISIONAL 1273 1262 P_____________ AL062022 14.1925 -45.5124 DB 30 1007 -3 1012 120 80 8 301
2022239N12324 2022 52 NA NA EARL 2022-08-29 06:00:00 NR 14.4000 -45.9000 PROVISIONAL 1265 1249 O_____________ nhc_working_bt AL062022 14.4000 -45.9000 DB 30 1007 -3 1012 120 80 8 293
2022239N12324 2022 52 NA NA EARL 2022-08-29 09:00:00 NR 14.5225 -46.3075 PROVISIONAL 1249 1235 P_____________ AL062022 14.5225 -46.3075 DB 30 1007 -3 1012 120 80 8 284
2022239N12324 2022 52 NA NA EARL 2022-08-29 12:00:00 NR 14.6000 -46.7000 PROVISIONAL 1235 1223 O_____________ nhc_working_bt AL062022 14.6000 -46.7000 DB 30 1007 -3 1012 120 80 7 282
2022239N12324 2022 52 NA NA EARL 2022-08-29 15:00:00 NR 14.6649 -47.0300 PROVISIONAL 1228 1211 P_____________ AL062022 14.6649 -47.0300 DB 30 1007 -3 1011 120 80 6 280
2022239N12324 2022 52 NA NA EARL 2022-08-29 18:00:00 NR 14.7000 -47.3000 PROVISIONAL 1211 1201 O_____________ nhc_working_bt AL062022 14.7000 -47.3000 DB 30 1008 -3 1011 120 80 5 276
2022239N12324 2022 52 NA NA EARL 2022-08-29 21:00:00 NR 14.7149 -47.5150 PROVISIONAL 1201 1191 P_____________ AL062022 14.7149 -47.5150 DB 27 1007 -3 1011 135 80 4 270
2022239N12324 2022 52 NA NA EARL 2022-08-30 00:00:00 NR 14.7000 -47.7000 PROVISIONAL 1191 1181 O_____________ nhc_working_bt AL062022 14.7000 -47.7000 DB 25 1007 -3 1012 150 80 4 260
2022239N12324 2022 52 NA NA EARL 2022-08-30 03:00:00 NR 14.6500 -47.8925 PROVISIONAL 1171 1161 P_____________ AL062022 14.6500 -47.8925 DB 25 1007 -3 1012 150 80 4 256
2022239N12324 2022 52 NA NA EARL 2022-08-30 06:00:00 NR 14.6000 -48.1000 PROVISIONAL 1161 1152 O_____________ nhc_working_bt AL062022 14.6000 -48.1000 DB 25 1007 -3 1012 150 80 4 262
2022239N12324 2022 52 NA NA EARL 2022-08-30 09:00:00 NR 14.5850 -48.3425 PROVISIONAL 1152 1138 P_____________ AL062022 14.5850 -48.3425 DB 25 1007 -3 1012 150 80 5 270
2022239N12324 2022 52 NA NA EARL 2022-08-30 12:00:00 NR 14.6000 -48.6000 PROVISIONAL 1138 1129 O_____________ nhc_working_bt AL062022 14.6000 -48.6000 DB 25 1007 -3 1012 150 80 5 276
2022239N12324 2022 52 NA NA EARL 2022-08-30 15:00:00 NR 14.6350 -48.8575 PROVISIONAL 1125 1125 P_____________ AL062022 14.6350 -48.8575 DB 27 1007 -3 1012 165 85 5 282
2022239N12324 2022 52 NA NA EARL 2022-08-30 18:00:00 NR 14.7000 -49.1000 PROVISIONAL 1128 1124 O_____________ nhc_working_bt AL062022 14.7000 -49.1000 DB 30 1007 -3 1012 180 90 5 290
2022239N12324 2022 52 NA NA EARL 2022-08-30 21:00:00 NR 14.7924 -49.3000 PROVISIONAL 1130 1126 P_____________ AL062022 14.7924 -49.3000 DB 30 1007 -3 1011 180 90 4 297
2022239N12324 2022 52 NA NA EARL 2022-08-31 00:00:00 NR 14.9000 -49.5000 PROVISIONAL 1131 1126 O_____________ nhc_working_bt AL062022 14.9000 -49.5000 DB 30 1007 -3 1011 180 90 5 295
2022239N12324 2022 52 NA NA EARL 2022-08-31 03:00:00 NR 15.0000 -49.7500 PROVISIONAL 1131 1122 P_____________ AL062022 15.0000 -49.7500 DB 30 1007 -3 1010 180 90 5 292
2022239N12324 2022 52 NA NA EARL 2022-08-31 06:00:00 NR 15.1000 -50.0000 PROVISIONAL 1128 1123 O_____________ nhc_working_bt AL062022 15.1000 -50.0000 DB 30 1007 -3 1010 180 90 5 294
2022239N12324 2022 52 NA NA EARL 2022-08-31 09:00:00 NR 15.2000 -50.2075 PROVISIONAL 1129 1125 P_____________ AL062022 15.2000 -50.2075 DB 30 1007 -3 1011 180 90 4 297
2022239N12324 2022 52 NA NA EARL 2022-08-31 12:00:00 NR 15.3000 -50.4000 PROVISIONAL 1131 1127 O_____________ nhc_working_bt AL062022 15.3000 -50.4000 DB 30 1008 -3 1012 180 90 4 298
2022239N12324 2022 52 NA NA EARL 2022-08-31 15:00:00 NR 15.4000 -50.5925 PROVISIONAL 1134 1130 P_____________ AL062022 15.4000 -50.5925 DB 30 1008 -3 1011 165 90 4 297
2022239N12324 2022 52 NA NA EARL 2022-08-31 18:00:00 NR 15.5000 -50.8000 PROVISIONAL 1137 1133 O_____________ nhc_working_bt AL062022 15.5000 -50.8000 DB 30 1008 -3 1010 150 90 5 296
2022239N12324 2022 52 NA NA EARL 2022-08-31 21:00:00 NR 15.5999 -51.0201 PROVISIONAL 1141 1137 P_____________ AL062022 15.5999 -51.0201 DB 30 1008 -3 1010 150 90 5 293
2022239N12324 2022 52 NA NA EARL 2022-09-01 00:00:00 NR 15.7000 -51.3000 PROVISIONAL 1142 1136 O_____________ nhc_working_bt AL062022 15.7000 -51.3000 DB 30 1008 -3 1010 150 90 7 288
2022239N12324 2022 52 NA NA EARL 2022-09-01 03:00:00 NR 15.7999 -51.6625 PROVISIONAL 1141 1125 P_____________ AL062022 15.7999 -51.6625 DB 30 1008 -3 1010 150 90 8 285
2022239N12324 2022 52 NA NA EARL 2022-09-01 06:00:00 NR 15.9000 -52.1000 PROVISIONAL 1125 1094 O_____________ nhc_working_bt AL062022 15.9000 -52.1000 DB 30 1008 -3 1010 150 90 9 282
2022239N12324 2022 52 NA NA EARL 2022-09-01 09:00:00 NR 15.9849 -52.5702 PROVISIONAL 1085 1046 P_____________ AL062022 15.9849 -52.5702 DB 30 1008 -3 1010 150 90 10 282
2022239N12324 2022 52 NA NA EARL 2022-09-01 12:00:00 NR 16.1000 -53.1000 PROVISIONAL 1046 1008 O_____________ nhc_working_bt AL062022 16.1000 -53.1000 DB 30 1008 -3 1010 150 90 40 11 286
2022239N12324 2022 52 NA NA EARL 2022-09-01 15:00:00 NR 16.2850 -53.6924 PROVISIONAL 1008 972 P_____________ AL062022 16.2850 -53.6924 DB 30 1008 -3 1010 150 90 12 289
2022239N12324 2022 52 NA NA EARL 2022-09-01 18:00:00 NR 16.5000 -54.3000 PROVISIONAL 972 948 O_____________ nhc_working_bt AL062022 16.5000 -54.3000 DB 30 1008 -3 1010 150 90 12 291
2022239N12324 2022 52 NA NA EARL 2022-09-01 21:00:00 NR 16.7223 -54.8649 PROVISIONAL 941 920 P_____________ AL062022 16.7223 -54.8649 DB 30 1008 -3 1010 150 90 11 291
2022239N12324 2022 52 NA NA EARL 2022-09-02 00:00:00 NR 16.9000 -55.4000 PROVISIONAL 920 886 O_____________ nhc_working_bt AL062022 16.9000 -55.4000 DB 30 1008 -3 1010 150 90 10 283
2022239N12324 2022 52 NA NA EARL 2022-09-02 03:00:00 NR 16.9498 -55.9004 PROVISIONAL 886 862 P_____________ AL062022 16.9498 -55.9004 DB 30 1008 -3 1010 150 90 10 276
2022239N12324 2022 52 NA NA EARL 2022-09-02 06:00:00 NR 17.0000 -56.4000 PROVISIONAL 862 842 O_____________ nhc_working_bt AL062022 17.0000 -56.4000 DB 30 1008 -3 1010 150 90 10 282
2022239N12324 2022 52 NA NA EARL 2022-09-02 09:00:00 NR 17.1699 -56.9425 PROVISIONAL 851 834 P_____________ AL062022 17.1699 -56.9425 DB 30 1008 -3 1010 150 85 11 291
2022239N12324 2022 52 NA NA EARL 2022-09-02 12:00:00 NR 17.4000 -57.5000 PROVISIONAL 839 807 O_____________ nhc_working_bt AL062022 17.4000 -57.5000 DB 30 1008 -3 1010 150 80 12 295
2022239N12324 2022 52 NA NA EARL 2022-09-02 15:00:00 NR 17.6498 -58.0425 PROVISIONAL 807 740 P_____________ AL062022 17.6498 -58.0425 DB 30 1007 -3 1010 150 80 12 295
2022239N12324 2022 52 NA NA EARL 2022-09-02 18:00:00 DS 17.9000 -58.6000 PROVISIONAL 740 676 O_____________ nhc_working_bt AL062022 17.9000 -58.6000 LO 30 1006 -3 1010 150 80 40 12 293
2022239N12324 2022 52 NA NA EARL 2022-09-02 21:00:00 DS 18.1149 -59.2001 PROVISIONAL 676 612 P_____________ AL062022 18.1149 -59.2001 LO 32 1005 -3 1010 150 100 12 289
2022239N12324 2022 52 NA NA EARL 2022-09-03 00:00:00 TS 18.3000 -59.8000 PROVISIONAL 612 559 O_____________ nhc_working_bt AL062022 18.3000 -59.8000 TS 35 1005 0 150 150 1010 150 120 45 12 287
2022239N12324 2022 52 NA NA EARL 2022-09-03 03:00:00 TS 18.4526 -60.3613 PROVISIONAL 548 496 P_____________ AL062022 18.4573 -60.3652 TS 35 1005 0 150 150 1010 150 120 11 286
2022239N12324 2022 52 NA NA EARL 2022-09-03 06:00:00 TS 18.6000 -60.9000 PROVISIONAL 496 444 O_____________ nhc_working_bt AL062022 18.6000 -60.9000 TS 35 1005 0 150 150 1010 150 120 45 10 287
2022239N12324 2022 52 NA NA EARL 2022-09-03 09:00:00 TS 18.7573 -61.4125 PROVISIONAL 444 393 P_____________ AL062022 18.7573 -61.4075 TS 35 1004 0 150 135 1010 150 110 10 288
2022239N12324 2022 52 NA NA EARL 2022-09-03 12:00:00 TS 18.9000 -61.9000 PROVISIONAL 393 354 O_____________ nhc_working_bt AL062022 18.9000 -61.9000 TS 35 1003 0 150 120 30 1010 150 100 45 9 285
2022239N12324 2022 52 NA NA EARL 2022-09-03 15:00:00 TS 18.9998 -62.3644 PROVISIONAL 343 305 P_____________ AL062022 18.9999 -62.4077 TS 40 1001 0 120 70 35 1010 135 70 9 283
2022239N12324 2022 52 NA NA EARL 2022-09-03 18:00:00 TS 19.1000 -62.8333 PROVISIONAL 305 248 O_____________ nhc_working_bt AL062022 19.1000 -62.9000 TS 45 999 0 90 20 40 1010 120 40 50 12 120 10 285
2022239N12324 2022 52 NA NA EARL 2022-09-03 21:00:00 TS 19.2577 -63.3823 PROVISIONAL 252 219 P_____________ AL062022 19.2576 -63.4023 TS 45 999 0 90 20 40 1010 110 40 12 120 10 287
2022239N12324 2022 52 NA NA EARL 2022-09-04 00:00:00 TS 19.4000 -63.8667 PROVISIONAL 210 191 O_____________ nhc_working_bt AL062022 19.4000 -63.8000 TS 45 999 0 90 20 40 1010 100 40 55 12 120 8 285
2022239N12324 2022 52 NA NA EARL 2022-09-04 03:00:00 TS 19.4673 -64.1868 PROVISIONAL 191 176 P_____________ AL062022 19.4573 -63.9802 TS 45 999 0 90 20 40 1010 100 40 12 120 5 282
2022239N12324 2022 52 NA NA EARL 2022-09-04 06:00:00 TS 19.5000 -64.3667 PROVISIONAL 176 176 O_____________ nhc_working_bt AL062022 19.5000 -64.1000 TS 45 999 0 90 20 40 1010 100 40 55 12 120 2 281
2022239N12324 2022 52 NA NA EARL 2022-09-04 09:00:00 TS 19.5083 -64.4192 PROVISIONAL 176 176 P_____________ AL062022 19.5850 -64.3425 TS 45 998 0 90 20 40 1010 100 40 12 120 1 304
2022239N12324 2022 52 NA NA EARL 2022-09-04 12:00:00 TS 19.5667 -64.4667 PROVISIONAL 177 177 O_____________ nhc_working_bt AL062022 19.7000 -64.6000 TS 45 998 0 90 20 40 1010 100 40 55 12 120 120 4 318
2022239N12324 2022 52 NA NA EARL 2022-09-04 15:00:00 TS 19.7809 -64.6798 PROVISIONAL 182 182 P_____________ AL062022 19.8575 -64.8150 TS 45 998 0 90 55 40 1010 100 50 12 120 135 6 315
2022239N12324 2022 52 NA NA EARL 2022-09-04 18:00:00 TS 20.0000 -64.9333 PROVISIONAL 193 186 O_____________ nhc_working_bt AL062022 20.0000 -65.0000 TS 45 998 0 90 90 40 1010 100 60 55 12 120 150 5 301
2022239N12324 2022 52 NA NA EARL 2022-09-04 21:00:00 TS 20.0450 -65.1443 PROVISIONAL 186 183 P_____________ AL062022 20.0350 -65.1726 TS 47 998 0 90 90 40 1010 110 55 4 286
2022239N12324 2022 52 NA NA EARL 2022-09-05 00:00:00 TS 20.1000 -65.3000 PROVISIONAL 192 192 O_____________ nhc_working_bt AL062022 20.1000 -65.3000 TS 50 998 0 90 90 40 50 1010 120 50 55 3 316
2022239N12324 2022 52 NA NA EARL 2022-09-05 03:00:00 TS 20.2900 -65.3924 PROVISIONAL 213 213 P_____________ AL062022 20.2900 -65.3874 TS 50 998 0 90 90 40 50 1010 120 50 5 349
2022239N12324 2022 52 NA NA EARL 2022-09-05 06:00:00 TS 20.6000 -65.4000 PROVISIONAL 246 246 O_____________ nhc_working_bt AL062022 20.6000 -65.4000 TS 50 998 0 90 90 40 50 1010 120 50 55 12 90 30 120 8 6
2022239N12324 2022 52 NA NA EARL 2022-09-05 09:00:00 TS 21.0575 -65.3078 PROVISIONAL 303 303 P_____________ AL062022 21.0575 -65.3078 TS 52 998 0 90 90 50 50 1010 120 50 12 90 30 120 9 12
2022239N12324 2022 52 NA NA EARL 2022-09-05 12:00:00 TS 21.5000 -65.2000 PROVISIONAL 349 349 O_____________ nhc_working_bt AL062022 21.5000 -65.2000 TS 55 998 0 90 90 60 50 30 1010 120 50 65 12 90 30 120 7 9
2022239N12324 2022 52 NA NA EARL 2022-09-05 15:00:00 TS 21.7225 -65.1849 PROVISIONAL 371 371 P_____________ AL062022 21.7225 -65.1849 TS 55 998 0 90 90 65 50 30 1010 120 45 12 90 37 120 4 0
2022239N12324 2022 52 NA NA EARL 2022-09-05 18:00:00 TS 21.9000 -65.2000 PROVISIONAL 393 393 O_____________ nhc_working_bt AL062022 21.9000 -65.2000 TS 55 998 0 90 90 70 50 30 1010 120 40 65 12 90 45 120 5 357
2022239N12324 2022 52 NA NA EARL 2022-09-05 21:00:00 TS 22.1850 -65.1926 PROVISIONAL 427 427 P_____________ AL062022 22.1850 -65.1926 TS 57 994 0 90 90 70 50 30 1011 120 35 12 105 45 105 6 1
2022239N12324 2022 52 NA NA EARL 2022-09-06 00:00:00 TS 22.5000 -65.2000 PROVISIONAL 460 460 O_____________ nhc_working_bt AL062022 22.5000 -65.2000 TS 60 991 0 90 90 20 70 50 30 30 1012 120 30 75 12 120 45 15 90 6 358
2022239N12324 2022 52 NA NA EARL 2022-09-06 03:00:00 TS 22.8150 -65.2201 PROVISIONAL 493 493 P_____________ AL062022 22.8150 -65.2201 TS 57 993 0 95 90 20 70 50 30 30 1012 140 30 12 127 52 22 97 6 352
2022239N12324 2022 52 NA NA EARL 2022-09-06 06:00:00 TS 23.1000 -65.3000 PROVISIONAL 526 526 O_____________ nhc_working_bt AL062022 23.1000 -65.3000 TS 55 995 0 100 90 20 70 50 30 30 1012 160 30 65 12 135 60 30 105 6 332
2022239N12324 2022 52 NA NA EARL 2022-09-06 09:00:00 TS 23.3151 -65.5074 PROVISIONAL 548 548 P_____________ AL062022 23.3151 -65.5074 TS 55 995 0 100 90 20 70 55 30 30 1012 160 35 12 135 60 30 105 5 318
2022239N12324 2022 52 NA NA EARL 2022-09-06 12:00:00 TS 23.5000 -65.7000 PROVISIONAL 570 570 O_____________ nhc_working_bt AL062022 23.5000 -65.7000 TS 55 996 0 100 90 20 70 60 30 30 1012 160 40 65 12 135 60 30 105 4 331
2022239N12324 2022 52 NA NA EARL 2022-09-06 15:00:00 TS 23.6775 -65.7227 PROVISIONAL 592 592 P_____________ AL062022 23.6775 -65.7227 TS 57 995 0 100 90 20 70 60 35 40 1012 160 35 12 142 90 60 112 4 0
2022239N12324 2022 52 NA NA EARL 2022-09-06 18:00:00 TS 23.9000 -65.7000 PROVISIONAL 615 615 O_____________ nhc_working_bt AL062022 23.9000 -65.7000 TS 60 994 0 100 90 20 70 60 40 50 1012 160 30 75 12 150 120 90 120 6 0
2022239N12324 2022 52 NA NA EARL 2022-09-06 21:00:00 TS 24.2500 -65.7424 PROVISIONAL 659 659 P_____________ AL062022 24.2500 -65.7424 TS 65 989 1 100 90 20 75 60 40 50 17 1012 170 30 12 150 120 90 120 7 353
2022239N12324 2022 52 NA NA EARL 2022-09-07 00:00:00 TS 24.6000 -65.8000 PROVISIONAL 693 693 O_____________ nhc_working_bt AL062022 24.6000 -65.8000 HU 70 985 1 100 90 20 80 60 40 50 35 1013 180 30 85 12 150 120 90 120 6 349
2022239N12324 2022 52 NA NA EARL 2022-09-07 03:00:00 TS 24.8225 -65.8650 PROVISIONAL 707 707 P_____________ AL062022 24.8225 -65.8650 HU 70 983 1 105 90 50 80 60 40 50 35 1012 200 30 12 150 120 90 120 4 348
2022239N12324 2022 52 NA NA EARL 2022-09-07 06:00:00 TS 25.0000 -65.9000 PROVISIONAL 726 726 O_____________ nhc_working_bt AL062022 25.0000 -65.9000 HU 70 982 1 110 90 80 80 60 40 30 50 35 25 25 30 1012 220 30 85 12 150 120 90 120 4 356
2022239N12324 2022 52 NA NA EARL 2022-09-07 09:00:00 TS 25.1775 -65.8725 PROVISIONAL 746 746 P_____________ AL062022 25.1775 -65.8725 HU 72 980 1 115 95 85 85 60 45 30 50 35 25 25 30 1012 220 30 12 150 120 105 135 4 12
2022239N12324 2022 52 NA NA EARL 2022-09-07 12:00:00 TS 25.4000 -65.8000 PROVISIONAL 770 770 O_____________ nhc_working_bt AL062022 25.4000 -65.8000 HU 75 978 1 120 100 90 90 60 50 30 50 35 25 25 30 1012 220 30 90 12 150 120 120 150 6 15
2022239N12324 2022 52 NA NA EARL 2022-09-07 15:00:00 TS 25.7275 -65.7001 PROVISIONAL 805 805 P_____________ AL062022 25.7275 -65.7001 HU 75 976 1 125 105 90 90 60 50 30 50 37 30 25 30 1012 220 32 12 150 120 135 150 7 15
2022239N12324 2022 52 NA NA EARL 2022-09-07 18:00:00 TS 26.1000 -65.6000 PROVISIONAL 849 849 O_____________ nhc_working_bt AL062022 26.1000 -65.6000 HU 75 974 1 130 110 90 90 60 50 30 50 40 35 25 30 1012 220 35 90 12 150 120 150 150 7 12
2022239N12324 2022 52 NA NA EARL 2022-09-07 21:00:00 TS 26.4350 -65.5350 PROVISIONAL 883 883 P_____________ AL062022 26.4350 -65.5350 HU 77 972 1 130 115 90 90 60 50 30 50 40 35 25 30 1012 220 35 12 165 135 150 150 7 7
2022239N12324 2022 52 NA NA EARL 2022-09-08 00:00:00 TS 26.8000 -65.5000 PROVISIONAL 923 923 O_____________ nhc_working_bt AL062022 26.8000 -65.5000 HU 80 971 1 130 120 90 90 60 50 30 50 40 35 25 30 1012 220 35 100 12 180 150 150 150 8 1
2022239N12324 2022 52 NA NA EARL 2022-09-08 03:00:00 TS 27.2350 -65.5072 PROVISIONAL 964 964 P_____________ AL062022 27.2350 -65.5072 HU 85 970 2 135 125 95 95 65 55 45 55 45 35 25 30 1010 230 35 12 210 285 285 195 9 0
2022239N12324 2022 52 NA NA EARL 2022-09-08 06:00:00 TS 27.7000 -65.5000 PROVISIONAL 1014 1014 O_____________ nhc_working_bt AL062022 27.7000 -65.5000 HU 90 969 2 140 130 100 100 70 60 60 60 50 35 25 30 1008 240 35 110 12 240 420 420 240 9 3
2022239N12324 2022 52 NA NA EARL 2022-09-08 09:00:00 TS 28.1349 -65.4446 PROVISIONAL 1058 1058 P_____________ AL062022 28.1349 -65.4446 HU 90 965 2 140 130 100 100 70 60 60 60 50 37 25 30 1008 240 32 12 225 315 300 210 9 11
2022239N12324 2022 52 NA NA EARL 2022-09-08 12:00:00 TS 28.6000 -65.3000 PROVISIONAL 1112 1112 O_____________ nhc_working_bt AL062022 28.6000 -65.3000 HU 90 962 2 140 130 100 100 70 60 60 60 50 40 25 30 1008 240 30 50 110 12 210 210 180 180 11 20
2022239N12324 2022 52 NA NA EARL 2022-09-08 15:00:00 TS 29.1502 -65.0156 PROVISIONAL 1185 1185 P_____________ AL062022 29.1502 -65.0156 HU 90 963 2 140 145 110 100 70 75 65 60 50 45 32 30 1008 240 30 12 210 210 180 180 12 25
2022239N12324 2022 52 NA NA EARL 2022-09-08 18:00:00 TS 29.7000 -64.7000 PROVISIONAL 1214 1196 O_____________ nhc_working_bt AL062022 29.7000 -64.7000 HU 90 964 2 140 160 120 100 70 90 70 60 50 50 40 30 1008 240 30 110 12 210 210 180 180 11 23
2022239N12324 2022 52 NA NA EARL 2022-09-08 21:00:00 TS 30.1345 -64.5359 PROVISIONAL 1204 1187 P_____________ AL062022 30.1345 -64.5359 HU 87 964 2 140 160 120 100 70 90 70 60 50 50 40 30 1006 215 30 12 225 240 195 180 10 21
2022239N12324 2022 52 NA NA EARL 2022-09-09 00:00:00 TS 30.6000 -64.3000 PROVISIONAL 1189 1183 O_____________ nhc_working_bt AL062022 30.6000 -64.3000 HU 85 964 2 140 160 120 100 70 90 70 60 50 50 40 30 1004 190 30 105 12 240 270 210 180 12 30
2022239N12324 2022 52 NA NA EARL 2022-09-09 03:00:00 TS 31.2051 -63.8174 PROVISIONAL 1196 1191 P_____________ AL062022 31.2051 -63.8174 HU 85 963 2 155 170 135 95 85 100 70 55 55 60 35 32 1004 190 35 12 240 270 225 195 16 36
2022239N12324 2022 52 NA NA EARL 2022-09-09 06:00:00 TS 31.9000 -63.2000 PROVISIONAL 1212 1200 O_____________ nhc_working_bt AL062022 31.9000 -63.2000 HU 85 963 2 170 180 150 90 100 110 70 50 60 70 30 35 1005 190 40 105 12 240 270 240 210 18 35
2022239N12324 2022 52 NA NA EARL 2022-09-09 09:00:00 TS 32.6338 -62.6229 PROVISIONAL 1205 1162 P_____________ AL062022 32.6338 -62.6229 HU 85 962 2 170 190 160 95 100 110 70 50 60 70 30 35 1005 195 40 12 255 280 255 215 19 36
2022239N12324 2022 52 NA NA EARL 2022-09-09 12:00:00 TS 33.4000 -61.9000 PROVISIONAL 1162 1110 O_____________ nhc_working_bt AL062022 33.4000 -61.9000 HU 85 961 2 170 200 170 100 100 110 70 50 60 70 30 35 1005 200 40 105 12 270 290 270 220 20 43
2022239N12324 2022 52 NA NA EARL 2022-09-09 15:00:00 TS 34.0961 -60.9724 PROVISIONAL 1110 1069 P_____________ AL062022 34.0961 -60.9724 HU 87 957 2 185 220 185 115 100 115 75 50 60 70 30 35 1004 205 40 12 270 310 270 260 23 49
2022239N12324 2022 52 NA NA EARL 2022-09-09 18:00:00 TS 34.9000 -59.8000 PROVISIONAL 1066 1034 O_____________ nhc_working_bt AL062022 34.9000 -59.8000 HU 90 954 2 200 240 200 130 100 120 80 50 60 70 30 35 1003 210 40 110 12 270 330 270 300 28 50
2022239N12324 2022 52 NA NA EARL 2022-09-09 21:00:00 TS 35.8970 -58.3294 PROVISIONAL 1034 974 P_____________ AL062022 35.8970 -58.3294 HU 90 954 2 200 240 200 130 100 120 80 50 60 70 35 32 1000 180 40 12 270 330 270 300 33 48
2022239N12324 2022 52 NA NA EARL 2022-09-10 00:00:00 TS 37.1000 -56.8000 PROVISIONAL 969 876 O_____________ nhc_working_bt AL062022 37.1000 -56.8000 HU 90 954 2 200 240 200 130 100 120 80 50 60 70 40 30 998 150 40 110 12 270 330 270 300 35 41
2022239N12324 2022 52 NA NA EARL 2022-09-10 03:00:00 TS 38.5350 -55.4043 PROVISIONAL 880 747 P_____________ AL062022 38.5350 -55.4043 HU 90 954 2 210 300 275 225 105 150 95 115 65 75 45 30 1006 305 42 12 345 365 315 390 35 34
2022239N12324 2022 52 NA NA EARL 2022-09-10 06:00:00 TS 40.0000 -54.3000 PROVISIONAL 735 589 O_____________ nhc_working_bt AL062022 40.0000 -54.3000 HU 90 955 2 221 360 350 320 110 180 110 180 70 80 50 30 1015 460 45 110 12 420 400 360 480 31 26
2022239N12324 2022 52 NA NA EARL 2022-09-10 09:00:00 TS 41.3475 -53.6444 PROVISIONAL 589 466 P_____________ AL062022 41.3475 -53.6444 HU 85 957 2 221 360 350 320 110 180 110 180 70 80 50 30 1015 460 45 12 375 485 495 455 25 17
2022239N12324 2022 52 NA NA EARL 2022-09-10 12:00:00 TS 42.4000 -53.3000 PROVISIONAL 466 400 O_____________ nhc_working_bt AL062022 42.4000 -53.3000 HU 80 960 1 221 360 350 320 110 180 110 180 70 80 50 30 1015 460 45 100 12 330 570 630 430 17 15
2022239N12324 2022 52 NA NA EARL 2022-09-10 15:00:00 TS 42.9885 -53.0393 PROVISIONAL 400 368 P_____________ AL062022 42.9885 -53.0393 HU 77 962 1 260 360 385 325 145 180 110 180 70 80 50 55 1015 460 52 12 330 570 630 430 10 22
2022239N12324 2022 52 NA NA EARL 2022-09-10 18:00:00 ET 43.3000 -52.8000 PROVISIONAL 368 O_____________ nhc_working_bt AL062022 43.3000 -52.8000 EX 75 964 -4 300 360 420 331 180 180 110 180 70 80 50 80 1015 460 60 90 12 330 570 630 430 7 29

IBTrACS Databaseについて

本データベースは、米国NOAAが公開する1842年以降の世界の熱帯低気圧のベストトラックデータアーカイブInternational Best Track Archive for Climate Stewardship (IBTrACS)を、ウェブで閲覧しやすい形式に変換したものです。

最終更新日:2022-10-05